Time;durP1;ratioP1;P1;durP2;ratioP2;P2;SDS_P1;SDS_P2;PMS_P1;PMS_P2;Temp;Humidity;BMP_temperature;BMP_pressure;BME280_temperature;BME280_humidity;BME280_pressure;Samples;Min_cycle;Max_cycle;Signal;HPM_P1;HPM_P2
2022/02/20 00:00:38;;;;;;;5.32;2.47;;;6.20;1.00;;;;;;5014670;28;20040;-76
2022/02/20 00:03:04;;;;;;;6.25;2.10;;;6.20;1.00;;;;;;5014530;28;20054;-76
2022/02/20 00:05:30;;;;;;;9.13;1.95;;;6.20;1.00;;;;;;5018851;28;20184;-76
2022/02/20 00:07:56;;;;;;;7.75;1.92;;;6.30;1.00;;;;;;5034147;28;20515;-76
2022/02/20 00:10:22;;;;;;;7.32;1.75;;;6.30;1.00;;;;;;5034249;28;20033;-76
2022/02/20 00:12:48;;;;;;;8.10;2.03;;;6.30;1.00;;;;;;5034386;28;20045;-76
2022/02/20 00:15:14;;;;;;;10.95;1.80;;;6.30;1.00;;;;;;5034428;28;20049;-76
2022/02/20 00:17:39;;;;;;;9.50;1.83;;;6.40;1.00;;;;;;5034370;28;20041;-76
2022/02/20 00:20:06;;;;;;;10.07;2.60;;;6.30;1.00;;;;;;5034520;28;20172;-76
2022/02/20 00:22:33;;;;;;;7.40;1.92;;;6.30;1.00;;;;;;5034234;28;20045;-76
2022/02/20 00:25:00;;;;;;;8.70;2.20;;;6.30;1.00;;;;;;5034310;28;20033;-76
2022/02/20 00:27:27;;;;;;;8.15;2.38;;;6.30;1.00;;;;;;5034139;28;20504;-76
2022/02/20 00:29:53;;;;;;;8.00;1.70;;;6.30;1.00;;;;;;5034338;28;20112;-76
2022/02/20 00:32:19;;;;;;;6.93;1.75;;;6.40;1.00;;;;;;5034015;28;20492;-76
2022/02/20 00:34:45;;;;;;;8.70;1.98;;;6.30;1.00;;;;;;5034569;28;20117;-76
2022/02/20 00:37:12;;;;;;;6.13;1.90;;;6.20;1.00;;;;;;5034358;28;20045;-76
2022/02/20 00:39:38;;;;;;;9.13;2.05;;;6.20;1.00;;;;;;5037289;28;20041;-76
2022/02/20 00:42:04;;;;;;;6.25;1.80;;;6.40;1.00;;;;;;5037843;28;20041;-76
2022/02/20 00:44:30;;;;;;;7.53;2.08;;;6.30;1.00;;;;;;5038107;28;20124;-77
2022/02/20 00:46:57;;;;;;;11.18;2.40;;;6.20;1.00;;;;;;5038011;28;20132;-77
2022/02/20 00:49:25;;;;;;;10.88;2.40;;;6.20;1.00;;;;;;5037709;28;20075;-77
2022/02/20 00:51:51;;;;;;;15.52;8.00;;;6.20;1.00;;;;;;5037741;28;20492;-76
2022/02/20 00:54:17;;;;;;;7.28;2.05;;;6.20;1.00;;;;;;5037687;28;20121;-76
2022/02/20 00:56:42;;;;;;;12.45;3.20;;;6.10;1.00;;;;;;5037653;28;20045;-76
2022/02/20 00:59:08;;;;;;;11.02;2.70;;;6.20;1.00;;;;;;5037893;28;20029;-76
2022/02/20 01:01:34;;;;;;;8.52;2.95;;;6.10;1.00;;;;;;5037721;28;20591;-76
2022/02/20 01:04:01;;;;;;;10.90;2.58;;;6.10;1.00;;;;;;5037385;28;20100;-76
2022/02/20 01:06:27;;;;;;;8.57;2.72;;;6.10;1.00;;;;;;5037658;28;20136;-76
2022/02/20 01:08:53;;;;;;;8.18;2.35;;;6.00;1.00;;;;;;5037556;28;20041;-76
2022/02/20 01:11:20;;;;;;;13.50;2.28;;;6.10;1.00;;;;;;5037705;28;20037;-76
2022/02/20 01:13:46;;;;;;;8.40;2.15;;;6.10;1.00;;;;;;5020004;28;20135;-76
2022/02/20 01:16:13;;;;;;;9.43;2.13;;;6.00;1.00;;;;;;5037585;28;20041;-76
2022/02/20 01:18:39;;;;;;;10.65;2.35;;;6.10;1.00;;;;;;5037683;28;20119;-76
2022/02/20 01:21:05;;;;;;;11.52;3.78;;;6.10;1.00;;;;;;5037498;28;20138;-76
2022/02/20 01:23:31;;;;;;;12.68;2.30;;;6.00;1.00;;;;;;5037254;28;20462;-76
2022/02/20 01:25:56;;;;;;;13.52;2.35;;;6.10;1.00;;;;;;5037580;28;20049;-76
2022/02/20 01:28:22;;;;;;;8.50;1.73;;;6.10;1.00;;;;;;5023654;28;20034;-77
2022/02/20 01:30:48;;;;;;;6.10;2.00;;;6.10;1.00;;;;;;5016075;28;20146;-76
2022/02/20 01:33:14;;;;;;;11.00;2.35;;;6.00;1.00;;;;;;5015969;28;20034;-76
2022/02/20 01:35:41;;;;;;;11.55;2.40;;;5.90;1.00;;;;;;5016145;28;20053;-75
2022/02/20 01:38:07;;;;;;;8.18;1.88;;;5.90;1.00;;;;;;5016575;28;20041;-76
2022/02/20 01:40:33;;;;;;;8.70;2.13;;;5.90;1.00;;;;;;5017086;28;20037;-76
2022/02/20 01:42:59;;;;;;;7.50;2.08;;;6.00;1.00;;;;;;5017188;28;20069;-76
2022/02/20 01:45:26;;;;;;;8.27;2.13;;;6.00;1.00;;;;;;5016926;28;20042;-76
2022/02/20 01:47:52;;;;;;;7.05;2.17;;;6.10;1.00;;;;;;5016860;28;20516;-76
2022/02/20 01:50:18;;;;;;;8.63;1.92;;;6.00;1.00;;;;;;5016562;28;20060;-76
2022/02/20 01:52:45;;;;;;;10.75;1.67;;;6.00;1.00;;;;;;5016941;28;20050;-76
2022/02/20 01:55:12;;;;;;;10.85;2.13;;;6.00;1.00;;;;;;5016823;28;20042;-76
2022/02/20 01:57:40;;;;;;;10.35;2.25;;;5.90;1.00;;;;;;5017414;28;20046;-76
2022/02/20 02:00:13;;;;;;;11.30;2.08;;;5.90;1.00;;;;;;5016900;28;20112;-76
2022/02/20 02:02:39;;;;;;;10.50;2.10;;;5.80;1.00;;;;;;5017202;28;20127;-76
2022/02/20 02:05:05;;;;;;;6.43;1.38;;;5.70;1.00;;;;;;5016730;28;20073;-76
2022/02/20 02:07:31;;;;;;;9.57;2.10;;;5.80;1.00;;;;;;5016735;28;20049;-76
2022/02/20 02:09:57;;;;;;;7.25;1.92;;;5.70;1.00;;;;;;5017085;28;20038;-76
2022/02/20 02:12:23;;;;;;;13.98;1.85;;;5.70;1.00;;;;;;5016698;28;20061;-76
2022/02/20 02:14:57;;;;;;;8.23;2.13;;;5.80;1.00;;;;;;5016866;28;20493;-75
2022/02/20 02:17:23;;;;;;;9.98;1.83;;;5.60;1.00;;;;;;5017075;28;20566;-76
2022/02/20 02:19:49;;;;;;;5.82;1.70;;;5.60;1.00;;;;;;5016593;28;20394;-76
2022/02/20 02:22:21;;;;;;;9.07;1.80;;;5.50;1.00;;;;;;5016684;28;20041;-75
2022/02/20 02:24:47;;;;;;;6.47;1.45;;;5.50;1.00;;;;;;5016650;28;20489;-76
2022/02/20 02:27:15;;;;;;;9.23;1.90;;;5.50;1.00;;;;;;5017015;28;20049;-76
2022/02/20 02:29:41;;;;;;;8.70;1.60;;;5.60;1.00;;;;;;5016607;28;20130;-76
2022/02/20 02:32:08;;;;;;;8.30;2.10;;;5.60;1.00;;;;;;5016353;28;20380;-76
2022/02/20 02:34:34;;;;;;;19.05;7.18;;;5.60;1.00;;;;;;5016601;28;20041;-76
2022/02/20 02:37:01;;;;;;;9.82;2.17;;;5.50;1.00;;;;;;5016428;28;20042;-76
2022/02/20 02:39:27;;;;;;;5.93;1.77;;;5.60;1.00;;;;;;5016797;28;20029;-76
2022/02/20 02:41:53;;;;;;;8.73;1.92;;;5.60;1.00;;;;;;5016206;28;20124;-76
2022/02/20 02:44:18;;;;;;;8.00;1.60;;;5.60;1.00;;;;;;5016689;28;20034;-75
2022/02/20 02:46:44;;;;;;;11.90;1.98;;;5.60;1.00;;;;;;5016242;28;20050;-75
2022/02/20 02:49:10;;;;;;;5.38;1.27;;;5.60;1.00;;;;;;5016157;28;20046;-76
2022/02/20 02:51:37;;;;;;;11.00;1.88;;;5.70;1.00;;;;;;5016316;28;20033;-76
2022/02/20 02:54:07;;;;;;;9.02;1.83;;;5.60;1.00;;;;;;5015767;28;20081;-76
2022/02/20 02:56:33;;;;;;;9.75;2.00;;;5.50;1.00;;;;;;5016286;28;20051;-76
2022/02/20 02:58:59;;;;;;;8.48;2.15;;;5.40;1.00;;;;;;5016261;28;20092;-75
2022/02/20 03:01:25;;;;;;;5.88;1.67;;;5.30;1.00;;;;;;5015252;28;20042;-76
2022/02/20 03:03:51;;;;;;;7.10;1.67;;;5.30;1.00;;;;;;5015780;28;20034;-76
2022/02/20 03:06:18;;;;;;;7.07;1.42;;;5.30;1.00;;;;;;5015970;28;20096;-76
2022/02/20 03:08:43;;;;;;;7.63;3.42;;;5.30;1.00;;;;;;5015347;28;20058;-75
2022/02/20 03:11:09;;;;;;;4.63;1.42;;;5.20;1.00;;;;;;5015960;28;20033;-76
2022/02/20 03:13:38;;;;;;;7.00;1.42;;;5.30;1.00;;;;;;5015815;28;20038;-75
2022/02/20 03:16:05;;;;;;;9.77;1.90;;;5.30;1.00;;;;;;5015233;28;20507;-75
2022/02/20 03:18:31;;;;;;;5.38;1.42;;;5.30;1.00;;;;;;5015731;28;20120;-76
2022/02/20 03:20:58;;;;;;;5.68;1.50;;;5.40;1.00;;;;;;5015217;28;20064;-75
2022/02/20 03:23:25;;;;;;;6.60;1.98;;;5.50;1.00;;;;;;5015323;28;20049;-76
2022/02/20 03:25:51;;;;;;;10.13;1.77;;;5.50;1.00;;;;;;5015379;28;20041;-75
2022/02/20 03:28:18;;;;;;;7.20;1.60;;;5.70;1.00;;;;;;5015573;28;20499;-76
2022/02/20 03:30:44;;;;;;;4.95;1.77;;;5.70;1.00;;;;;;5015346;28;20046;-75
2022/02/20 03:33:10;;;;;;;7.70;1.75;;;5.70;1.00;;;;;;5015002;28;20124;-76
2022/02/20 03:35:36;;;;;;;5.85;1.70;;;5.80;1.00;;;;;;5015292;28;20077;-76
2022/02/20 03:38:03;;;;;;;8.38;1.20;;;5.90;1.00;;;;;;5014947;28;20433;-75
2022/02/20 03:40:29;;;;;;;7.65;1.52;;;5.90;1.00;;;;;;5015217;28;20064;-76
2022/02/20 03:42:55;;;;;;;6.55;1.88;;;5.90;1.00;;;;;;5014894;28;20046;-75
2022/02/20 03:45:22;;;;;;;8.18;1.70;;;6.00;1.00;;;;;;5014971;28;20115;-75
2022/02/20 03:47:51;;;;;;;9.48;1.70;;;5.90;1.00;;;;;;5015469;28;20096;-76
2022/02/20 03:50:17;;;;;;;10.10;1.83;;;6.00;1.00;;;;;;5014756;28;20068;-76
2022/02/20 03:52:44;;;;;;;9.38;1.67;;;5.90;1.00;;;;;;5014600;28;20045;-75
2022/02/20 03:55:10;;;;;;;12.35;1.70;;;5.90;1.00;;;;;;5014891;28;20069;-75
2022/02/20 03:57:37;;;;;;;9.05;1.70;;;6.00;1.00;;;;;;5015207;28;20044;-75
2022/02/20 04:00:11;;;;;;;6.82;1.73;;;6.00;1.00;;;;;;5014824;28;20034;-76
2022/02/20 04:02:41;;;;;;;5.57;1.60;;;6.00;1.00;;;;;;5015324;28;20117;-76
2022/02/20 04:05:11;;;;;;;8.70;1.67;;;6.00;1.00;;;;;;5014679;28;20504;-75
2022/02/20 04:07:38;;;;;;;10.90;2.20;;;6.00;1.00;;;;;;5015116;28;20054;-76
2022/02/20 04:10:05;;;;;;;6.97;1.92;;;6.00;1.00;;;;;;5015377;28;20088;-76
2022/02/20 04:12:31;;;;;;;6.75;1.63;;;5.90;1.00;;;;;;5014540;28;20068;-76
2022/02/20 04:14:57;;;;;;;6.88;1.77;;;5.90;1.00;;;;;;5015000;28;20034;-75
2022/02/20 04:17:24;;;;;;;9.05;1.50;;;5.90;1.00;;;;;;5014319;28;20061;-76
2022/02/20 04:19:52;;;;;;;8.32;1.35;;;5.90;1.00;;;;;;5014347;28;20519;-76
2022/02/20 04:22:18;;;;;;;8.57;1.40;;;5.90;1.00;;;;;;5014420;28;20127;-76
2022/02/20 04:24:45;;;;;;;9.20;2.00;;;5.90;1.00;;;;;;5014585;28;20049;-76
2022/02/20 04:27:11;;;;;;;7.03;1.65;;;5.90;1.00;;;;;;5014926;28;20109;-76
2022/02/20 04:29:37;;;;;;;7.50;1.08;;;5.90;1.00;;;;;;5014619;28;20061;-77
2022/02/20 04:32:04;;;;;;;9.00;1.15;;;5.90;1.00;;;;;;5014576;28;20034;-76
2022/02/20 04:34:30;;;;;;;8.98;1.60;;;5.90;1.00;;;;;;5014444;28;20042;-75
2022/02/20 04:36:56;;;;;;;8.93;1.80;;;5.90;1.00;;;;;;5014046;28;20096;-76
2022/02/20 04:39:21;;;;;;;11.95;1.40;;;5.80;1.00;;;;;;5014254;28;20071;-76
2022/02/20 04:41:48;;;;;;;10.98;1.58;;;5.80;1.00;;;;;;5014053;28;20435;-76
2022/02/20 04:44:15;;;;;;;6.88;1.42;;;5.90;1.00;;;;;;5014194;28;20050;-75
2022/02/20 04:46:41;;;;;;;11.10;1.45;;;5.80;1.00;;;;;;5014389;28;20526;-76
2022/02/20 04:49:07;;;;;;;6.32;1.63;;;5.80;1.00;;;;;;5013924;28;20492;-76
2022/02/20 04:51:35;;;;;;;12.88;1.70;;;5.70;1.00;;;;;;5014435;28;20156;-76
2022/02/20 04:54:02;;;;;;;10.55;1.70;;;5.70;1.00;;;;;;5013961;28;20045;-75
2022/02/20 04:56:29;;;;;;;7.63;1.50;;;5.70;1.00;;;;;;5014911;28;20045;-76
2022/02/20 04:58:55;;;;;;;8.40;1.50;;;5.80;1.00;;;;;;5014185;28;20037;-76
2022/02/20 05:01:22;;;;;;;8.02;1.73;;;5.80;1.00;;;;;;5014364;28;20034;-75
2022/02/20 05:03:48;;;;;;;10.50;1.60;;;5.90;1.00;;;;;;5014366;28;20123;-76
2022/02/20 05:06:14;;;;;;;7.57;1.52;;;5.90;1.00;;;;;;5014492;28;20050;-76
2022/02/20 05:08:40;;;;;;;6.13;1.30;;;5.90;1.00;;;;;;5014667;28;20065;-76
2022/02/20 05:11:06;;;;;;;8.32;1.63;;;5.90;1.00;;;;;;5014630;28;20116;-76
2022/02/20 05:13:32;;;;;;;7.13;1.85;;;5.90;1.00;;;;;;5014689;28;20392;-76
2022/02/20 05:15:58;;;;;;;10.88;1.70;;;5.90;1.00;;;;;;5014231;28;20048;-76
2022/02/20 05:18:23;;;;;;;5.82;1.60;;;5.90;1.00;;;;;;5014441;28;20056;-75
2022/02/20 05:20:54;;;;;;;8.18;2.10;;;5.80;1.00;;;;;;5014435;28;20038;-76
2022/02/20 05:23:21;;;;;;;;;;;5.90;1.00;;;;;;5014385;28;20038;-76
2022/02/20 05:25:48;;;;;;;7.53;1.60;;;5.90;1.00;;;;;;5016926;28;19953;-76
2022/02/20 05:28:14;;;;;;;5.78;1.52;;;5.90;1.00;;;;;;5017795;28;20049;-76
2022/02/20 05:30:40;;;;;;;8.55;1.08;;;5.90;1.00;;;;;;5017861;28;20066;-76
2022/02/20 05:33:06;;;;;;;4.68;1.25;;;6.00;1.00;;;;;;5017847;28;20128;-76
2022/02/20 05:35:32;;;;;;;5.57;1.70;;;5.90;1.00;;;;;;5017523;28;20464;-76
2022/02/20 05:37:58;;;;;;;3.58;1.00;;;6.00;1.00;;;;;;5017371;28;20511;-76
2022/02/20 05:40:24;;;;;;;6.07;1.38;;;6.00;1.00;;;;;;5017756;28;20511;-76
2022/02/20 05:42:57;;;;;;;8.05;1.33;;;6.00;1.00;;;;;;5017923;28;20092;-76
2022/02/20 05:45:24;;;;;;;7.03;1.30;;;6.00;1.00;;;;;;5017200;28;20135;-76
2022/02/20 05:47:50;;;;;;;5.03;1.13;;;6.10;1.00;;;;;;5017729;28;20173;-76
2022/02/20 05:50:16;;;;;;;10.02;1.40;;;6.10;1.00;;;;;;5017220;28;20543;-76
2022/02/20 05:52:42;;;;;;;6.40;1.33;;;6.10;1.00;;;;;;5016989;28;20034;-76
2022/02/20 05:55:09;;;;;;;9.05;1.58;;;6.00;1.00;;;;;;5017273;28;20038;-76
2022/02/20 05:57:49;;;;;;;6.05;1.25;;;6.00;1.00;;;;;;5017241;28;20476;-76
2022/02/20 06:00:17;;;;;;;3.88;1.13;;;5.90;1.00;;;;;;5017336;28;20041;-76
2022/02/20 06:02:43;;;;;;;5.07;1.00;;;5.90;1.00;;;;;;5017158;28;20111;-76
2022/02/20 06:05:10;;;;;;;7.90;1.75;;;5.90;1.00;;;;;;5017667;28;20046;-76
2022/02/20 06:07:38;;;;;;;6.03;1.42;;;5.90;1.00;;;;;;5016948;28;20042;-76
2022/02/20 06:10:06;;;;;;;9.68;1.55;;;6.00;1.00;;;;;;5016827;28;20073;-76
2022/02/20 06:12:32;;;;;;;9.65;1.52;;;5.90;1.00;;;;;;5016897;28;20096;-76
2022/02/20 06:14:58;;;;;;;4.57;0.93;;;6.00;1.00;;;;;;5016997;28;20495;-76
2022/02/20 06:17:24;;;;;;;6.65;1.25;;;6.10;1.00;;;;;;5016440;28;20137;-76
2022/02/20 06:19:50;;;;;;;5.38;1.27;;;6.00;1.00;;;;;;5016670;28;20042;-76
2022/02/20 06:22:16;;;;;;;9.32;1.50;;;6.00;1.00;;;;;;5016446;28;20120;-75
2022/02/20 06:24:42;;;;;;;6.53;1.33;;;6.00;1.00;;;;;;5016827;28;20034;-76
2022/02/20 06:27:08;;;;;;;5.15;1.33;;;6.00;1.00;;;;;;5016185;28;20116;-76
2022/02/20 06:29:34;;;;;;;5.45;1.52;;;6.10;1.00;;;;;;5016234;28;20045;-76
2022/02/20 06:32:01;;;;;;;9.65;1.48;;;6.00;1.00;;;;;;5016707;28;20505;-75
2022/02/20 06:34:26;;;;;;;7.10;1.35;;;6.10;1.00;;;;;;5016090;28;20045;-76
2022/02/20 06:36:53;;;;;;;8.82;1.75;;;6.10;1.00;;;;;;5016596;28;20042;-76
2022/02/20 06:39:20;;;;;;;5.05;1.55;;;6.00;1.00;;;;;;5015960;28;20076;-76
2022/02/20 06:41:46;;;;;;;6.15;1.67;;;6.00;1.00;;;;;;5016254;28;20046;-76
2022/02/20 06:44:12;;;;;;;7.15;1.65;;;6.10;1.00;;;;;;5016058;28;20037;-76
2022/02/20 06:46:38;;;;;;;7.28;1.20;;;6.10;1.00;;;;;;5015749;28;20049;-76
2022/02/20 06:49:08;;;;;;;7.82;1.23;;;6.10;1.00;;;;;;5015772;28;20034;-76
2022/02/20 06:51:35;;;;;;;8.95;1.73;;;6.10;1.00;;;;;;5015774;28;20041;-76
2022/02/20 06:54:02;;;;;;;10.63;2.03;;;6.20;1.00;;;;;;5015589;28;20091;-75
2022/02/20 06:56:27;;;;;;;6.57;1.13;;;6.30;1.00;;;;;;5015997;28;20107;-76
2022/02/20 06:58:53;;;;;;;10.18;1.83;;;6.30;1.00;;;;;;5016067;28;20463;-76
2022/02/20 07:01:19;;;;;;;6.60;1.88;;;6.20;1.00;;;;;;5016199;28;20168;-76
2022/02/20 07:03:45;;;;;;;4.57;1.35;;;6.30;1.00;;;;;;5015580;28;20070;-76
2022/02/20 07:06:11;;;;;;;5.93;1.55;;;6.30;1.00;;;;;;5015456;28;20132;-76
2022/02/20 07:08:37;;;;;;;4.72;1.00;;;6.30;1.00;;;;;;5015931;28;20046;-76
2022/02/20 07:11:03;;;;;;;5.35;1.63;;;6.50;1.00;;;;;;5016176;28;20120;-76
2022/02/20 07:13:29;;;;;;;4.15;1.30;;;6.60;1.00;;;;;;5016043;28;20041;-76
2022/02/20 07:15:55;;;;;;;6.70;1.55;;;6.70;1.00;;;;;;5015665;28;20046;-76
2022/02/20 07:18:21;;;;;;;5.50;1.60;;;6.70;1.00;;;;;;5016051;28;20045;-76
2022/02/20 07:20:47;;;;;;;8.50;1.25;;;6.80;1.00;;;;;;5015841;28;20479;-76
2022/02/20 07:23:14;;;;;;;6.53;0.85;;;7.00;1.00;;;;;;5015751;28;20099;-76
2022/02/20 07:25:40;;;;;;;7.63;1.27;;;7.00;1.00;;;;;;5015390;28;20050;-76
2022/02/20 07:28:06;;;;;;;6.03;1.23;;;7.10;1.00;;;;;;5015896;28;20037;-76
2022/02/20 07:30:33;;;;;;;5.13;1.35;;;7.20;1.00;;;;;;5015673;28;20034;-76
2022/02/20 07:33:04;;;;;;;11.77;1.95;;;7.30;1.00;;;;;;5015531;28;20045;-76
2022/02/20 07:35:31;;;;;;;9.07;1.45;;;7.40;1.00;;;;;;5016132;28;20042;-76
2022/02/20 07:37:57;;;;;;;6.32;1.00;;;7.20;1.00;;;;;;5015266;28;20042;-76
2022/02/20 07:40:23;;;;;;;4.53;1.02;;;7.30;1.00;;;;;;5015470;28;20066;-76
2022/02/20 07:42:49;;;;;;;5.93;1.63;;;7.20;1.00;;;;;;5015156;28;20045;-76
2022/02/20 07:45:15;;;;;;;4.18;1.02;;;7.20;1.00;;;;;;5015325;28;20041;-76
2022/02/20 07:47:52;;;;;;;7.22;1.23;;;7.20;1.00;;;;;;5014862;28;20045;-76
2022/02/20 07:50:20;;;;;;;6.43;1.27;;;7.40;1.00;;;;;;5015358;28;20155;-76
2022/02/20 07:52:46;;;;;;;3.40;1.20;;;7.30;1.00;;;;;;5015138;28;20041;-76
2022/02/20 07:55:13;;;;;;;3.67;1.10;;;7.30;1.00;;;;;;5015255;28;20092;-76
2022/02/20 07:57:38;;;;;;;2.72;1.10;;;7.30;1.00;;;;;;5015713;28;20048;-76
2022/02/20 08:00:05;;;;;;;10.80;1.80;;;7.50;1.00;;;;;;5015227;28;20042;-76
2022/02/20 08:02:31;;;;;;;6.63;1.85;;;7.60;1.00;;;;;;5028957;28;20033;-76
2022/02/20 08:04:57;;;;;;;9.98;2.67;;;7.60;1.00;;;;;;5034803;28;20045;-75
2022/02/20 08:07:23;;;;;;;6.18;1.50;;;7.70;1.00;;;;;;5034619;28;20053;-76
2022/02/20 08:09:49;;;;;;;3.20;1.20;;;7.70;1.00;;;;;;5034546;28;20037;-76
2022/02/20 08:12:15;;;;;;;5.00;1.35;;;7.70;1.00;;;;;;5034095;28;20048;-75
2022/02/20 08:14:41;;;;;;;7.35;1.38;;;7.90;1.00;;;;;;5034065;28;20124;-76
2022/02/20 08:17:06;;;;;;;8.00;2.03;;;8.00;1.00;;;;;;5034363;28;20127;-75
2022/02/20 08:19:32;;;;;;;5.63;1.45;;;7.90;1.00;;;;;;5034752;28;20073;-76
2022/02/20 08:21:58;;;;;;;7.78;1.23;;;8.10;1.00;;;;;;5033869;28;20044;-75
2022/02/20 08:24:24;;;;;;;9.07;1.75;;;8.10;1.00;;;;;;5034375;28;20119;-76
2022/02/20 08:26:50;;;;;;;7.45;1.40;;;8.10;1.00;;;;;;5033976;28;20111;-76
2022/02/20 08:29:21;;;;;;;6.35;1.83;;;8.10;1.00;;;;;;5034098;28;20034;-76
2022/02/20 08:31:49;;;;;;;;;;;8.20;1.00;;;;;;5034830;28;20069;-75
2022/02/20 08:34:15;;;;;;;5.88;1.58;;;8.20;1.00;;;;;;5034331;28;20390;-75
2022/02/20 08:36:42;;;;;;;4.60;1.08;;;8.10;1.00;;;;;;5033324;28;20041;-76
2022/02/20 08:39:08;;;;;;;10.68;1.38;;;8.20;1.00;;;;;;5033665;28;20092;-76
2022/02/20 08:41:35;;;;;;;2.80;1.05;;;8.40;1.00;;;;;;5033941;28;20045;-76
2022/02/20 08:44:03;;;;;;;4.35;0.80;;;8.50;1.00;;;;;;5033344;28;20526;-76
2022/02/20 08:46:29;;;;;;;4.40;1.05;;;8.40;1.00;;;;;;5033022;28;20512;-75
2022/02/20 08:48:54;;;;;;;4.50;1.20;;;8.60;1.00;;;;;;5033280;28;20052;-75
2022/02/20 08:51:20;;;;;;;7.38;1.60;;;8.70;1.00;;;;;;5032284;28;20037;-75
2022/02/20 08:53:47;;;;;;;5.82;1.30;;;8.50;1.00;;;;;;5033186;28;20076;-75
2022/02/20 08:56:13;;;;;;;5.75;1.10;;;8.60;1.00;;;;;;5033831;28;20129;-76
2022/02/20 08:58:39;;;;;;;5.97;1.02;;;8.60;1.00;;;;;;5032636;28;20037;-75
2022/02/20 09:01:05;;;;;;;4.60;1.05;;;8.70;1.00;;;;;;5037238;28;20041;-76
2022/02/20 09:03:32;;;;;;;3.28;1.10;;;8.60;1.00;;;;;;5037522;28;20038;-75
2022/02/20 09:05:59;;;;;;;5.07;1.20;;;9.00;1.00;;;;;;5037430;28;20146;-76
2022/02/20 09:08:26;;;;;;;6.20;1.23;;;9.20;1.00;;;;;;5036248;28;20160;-76
2022/02/20 09:10:52;;;;;;;5.28;1.10;;;9.20;1.00;;;;;;5037070;28;20037;-76
2022/02/20 09:13:18;;;;;;;6.13;1.70;;;9.40;1.00;;;;;;5036390;28;20041;-75
2022/02/20 09:15:44;;;;;;;5.85;1.50;;;9.10;1.00;;;;;;5036927;28;20045;-76
2022/02/20 09:18:10;;;;;;;7.68;1.70;;;9.40;1.00;;;;;;5037224;28;20052;-76
2022/02/20 09:20:37;;;;;;;8.55;1.63;;;9.30;1.00;;;;;;5036423;28;20052;-75
2022/02/20 09:23:06;;;;;;;5.38;1.38;;;9.80;1.00;;;;;;5028901;28;20134;-76
2022/02/20 09:25:32;;;;;;;5.55;1.38;;;9.80;1.00;;;;;;5031296;28;20071;-77
2022/02/20 09:27:58;;;;;;;7.35;1.30;;;9.80;1.00;;;;;;5035876;28;20571;-77
2022/02/20 09:30:24;;;;;;;5.65;1.30;;;9.90;1.00;;;;;;5031523;28;20037;-77
2022/02/20 09:32:50;;;;;;;4.35;1.35;;;9.90;1.00;;;;;;5033385;28;20064;-77
2022/02/20 09:35:16;;;;;;;4.43;1.20;;;10.20;1.00;;;;;;5035503;28;20499;-76
2022/02/20 09:37:42;;;;;;;4.75;1.73;;;9.90;1.00;;;;;;5034102;28;20033;-77
2022/02/20 09:40:09;;;;;;;7.53;2.08;;;9.90;1.00;;;;;;5036448;28;20034;-78
2022/02/20 09:42:35;;;;;;;5.07;1.50;;;9.70;1.00;;;;;;5036370;28;20519;-76
2022/02/20 09:45:01;;;;;;;7.20;1.52;;;9.50;1.00;;;;;;5036524;28;20029;-77
2022/02/20 09:47:29;;;;;;;7.13;1.52;;;9.60;1.00;;;;;;5036506;28;20033;-76
2022/02/20 09:50:00;;;;;;;4.15;1.10;;;9.60;1.00;;;;;;5035683;28;20037;-76
2022/02/20 09:52:27;;;;;;;5.65;1.42;;;9.60;1.00;;;;;;5036339;28;20037;-75
2022/02/20 09:54:53;;;;;;;5.45;1.50;;;9.70;1.00;;;;;;5036280;28;20124;-76
2022/02/20 09:57:19;;;;;;;4.63;1.55;;;9.80;1.00;;;;;;5035952;28;20504;-76
2022/02/20 09:59:44;;;;;;;5.15;1.60;;;9.90;1.00;;;;;;5035201;28;20041;-76
2022/02/20 10:02:14;;;;;;;4.25;1.42;;;10.10;1.00;;;;;;5030248;28;20116;-72
2022/02/20 10:04:44;;;;;;;3.95;1.20;;;9.90;1.00;;;;;;5033464;28;20048;-76
2022/02/20 10:07:27;;;;;;;4.07;1.45;;;9.90;1.00;;;;;;5027924;28;20050;-75
2022/02/20 10:09:53;;;;;;;9.95;1.35;;;9.70;1.00;;;;;;5028067;28;20623;-78
2022/02/20 10:12:27;;;;;;;6.05;1.40;;;9.50;1.00;;;;;;5013046;28;20518;-78
2022/02/20 10:14:55;;;;;;;5.75;1.50;;;9.40;1.00;;;;;;5029273;28;20167;-79
2022/02/20 10:17:22;;;;;;;5.18;1.95;;;9.50;1.00;;;;;;5024466;28;20063;-76
2022/02/20 10:20:04;;;;;;;6.88;1.60;;;9.80;1.00;;;;;;5019844;28;20091;-76
2022/02/20 10:22:38;;;;;;;4.78;1.10;;;9.90;1.00;;;;;;5029774;28;20451;-76
2022/02/20 10:25:12;;;;;;;8.35;1.77;;;9.70;1.00;;;;;;5023530;28;20136;-75
2022/02/20 10:27:52;;;;;;;6.75;1.98;;;10.00;1.00;;;;;;5021415;28;20393;-75
2022/02/20 10:30:21;;;;;;;5.47;1.65;;;10.00;1.00;;;;;;5013554;28;20516;-75
2022/02/20 10:33:05;;;;;;;6.13;1.40;;;9.90;1.00;;;;;;5018735;28;20128;-75
2022/02/20 10:35:34;;;;;;;7.93;1.45;;;9.80;1.00;;;;;;5034804;28;20048;-74
2022/02/20 10:38:12;;;;;;;7.50;1.38;;;9.80;1.00;;;;;;5034637;28;20107;-75
2022/02/20 10:40:40;;;;;;;4.50;1.30;;;9.80;1.00;;;;;;5020699;28;20045;-75
2022/02/20 10:43:08;;;;;;;7.13;1.25;;;9.90;1.00;;;;;;5014368;28;20037;-74
2022/02/20 10:45:40;;;;;;;5.18;1.20;;;9.80;1.00;;;;;;5024147;28;20037;-77
2022/02/20 10:48:16;;;;;;;5.18;1.13;;;9.90;1.00;;;;;;5030314;28;20519;-73
2022/02/20 10:50:42;;;;;;;3.47;1.17;;;9.90;1.00;;;;;;5030715;28;20030;-74
2022/02/20 10:53:19;;;;;;;4.57;1.33;;;10.00;1.00;;;;;;5032512;28;20068;-74
2022/02/20 10:55:50;;;;;;;3.53;1.60;;;10.30;1.00;;;;;;5032705;28;20132;-74
2022/02/20 10:58:17;;;;;;;;;;;10.40;1.00;;;;;;5032938;28;20044;-74
2022/02/20 11:00:52;;;;;;;1.83;0.85;;;10.60;1.00;;;;;;5030451;28;20371;-74
2022/02/20 11:03:20;;;;;;;4.90;1.23;;;10.50;1.00;;;;;;5029626;28;20069;-74
2022/02/20 11:05:46;;;;;;;7.28;2.65;;;10.70;1.00;;;;;;5031197;28;20041;-73
2022/02/20 11:08:13;;;;;;;7.30;2.55;;;10.70;1.00;;;;;;5032380;28;20592;-72
2022/02/20 11:10:40;;;;;;;3.50;1.75;;;10.90;1.00;;;;;;5016143;28;20033;-72
2022/02/20 11:13:09;;;;;;;2.83;1.13;;;10.90;1.00;;;;;;5022446;28;20046;-72
2022/02/20 11:15:36;;;;;;;6.07;0.90;;;10.90;1.00;;;;;;5024507;28;20492;-72
2022/02/20 11:18:05;;;;;;;6.50;1.30;;;10.80;1.00;;;;;;5033513;28;20042;-73
2022/02/20 11:20:33;;;;;;;4.70;1.30;;;10.80;1.00;;;;;;5032101;28;20044;-72
2022/02/20 11:23:04;;;;;;;3.15;0.82;;;10.90;1.00;;;;;;5015673;28;20042;-71
2022/02/20 11:25:32;;;;;;;4.07;1.27;;;10.90;1.00;;;;;;5014143;28;20099;-72
2022/02/20 11:27:59;;;;;;;1.88;1.02;;;11.00;1.00;;;;;;5013933;28;20044;-72
2022/02/20 11:30:26;;;;;;;3.53;1.00;;;10.80;1.00;;;;;;5012970;28;20091;-72
2022/02/20 11:32:55;;;;;;;4.93;1.05;;;10.90;1.00;;;;;;5013829;28;20044;-72
2022/02/20 11:35:21;;;;;;;5.03;1.30;;;11.30;1.00;;;;;;5014402;28;20405;-72
2022/02/20 11:37:49;;;;;;;3.25;1.10;;;11.10;1.00;;;;;;5013817;28;20052;-72
2022/02/20 11:40:16;;;;;;;3.05;1.25;;;11.00;1.00;;;;;;5029470;28;20052;-72
2022/02/20 11:43:04;;;;;;;4.40;1.85;;;11.30;1.00;;;;;;5033575;28;20037;-72
2022/02/20 11:45:32;;;;;;;6.95;3.88;;;11.40;1.00;;;;;;5033497;28;20099;-72
2022/02/20 11:48:06;;;;;;;5.18;2.30;;;11.50;1.00;;;;;;5033602;28;20500;-71
2022/02/20 11:50:42;;;;;;;4.78;1.58;;;11.40;1.00;;;;;;5032665;28;20042;-72
2022/02/20 11:53:09;;;;;;;4.22;0.82;;;11.10;1.00;;;;;;5033491;28;20045;-72
2022/02/20 11:55:43;;;;;;;2.92;1.05;;;10.80;1.00;;;;;;5017522;28;20033;-72
2022/02/20 11:58:21;;;;;;;3.17;1.20;;;10.80;1.00;;;;;;5020009;28;20527;-72
2022/02/20 12:00:56;;;;;;;0.90;0.40;;;10.90;1.00;;;;;;5032632;28;20064;-72
2022/02/20 12:03:27;;;;;;;1.85;0.63;;;10.90;1.00;;;;;;5030174;28;20039;-73
2022/02/20 12:06:08;;;;;;;1.08;0.60;;;10.80;1.00;;;;;;5031467;28;20045;-72
2022/02/20 12:08:35;;;;;;;3.15;1.27;;;10.80;1.00;;;;;;5027486;28;20869;-71
2022/02/20 12:11:15;;;;;;;2.13;0.65;;;10.80;1.00;;;;;;5029847;28;20040;-72
2022/02/20 12:14:12;;;;;;;2.83;0.45;;;11.00;1.00;;;;;;5012195;28;20084;-71
2022/02/20 12:16:46;;;;;;;1.80;0.73;;;10.70;1.00;;;;;;5013985;28;20052;-72
2022/02/20 12:19:20;;;;;;;0.80;0.40;;;10.90;1.00;;;;;;5013374;28;20553;-72
2022/02/20 12:25:10;;;;;;;0.90;0.57;;;10.90;1.00;;;;;;5227958;22;20075;-71
2022/02/20 12:27:39;;;;;;;1.08;0.70;;;11.20;1.00;;;;;;5039725;28;20045;-71
2022/02/20 12:30:11;;;;;;;1.95;0.35;;;11.20;1.00;;;;;;5038479;28;20053;-71
2022/02/20 12:32:40;;;;;;;1.13;0.30;;;11.60;1.00;;;;;;5033485;28;20034;-71
2022/02/20 12:35:09;;;;;;;1.80;0.52;;;11.80;1.00;;;;;;5037632;28;20121;-70
2022/02/20 12:37:45;;;;;;;2.42;1.90;;;11.60;1.00;;;;;;5037685;28;20068;-70
2022/02/20 12:40:25;;;;;;;1.35;0.90;;;11.30;1.00;;;;;;5037335;28;20495;-70
2022/02/20 12:42:57;;;;;;;2.72;1.10;;;11.20;1.00;;;;;;5044315;28;20040;-71
2022/02/20 12:45:35;;;;;;;0.45;0.28;;;11.60;1.00;;;;;;5057138;28;20135;-71
2022/02/20 12:48:05;;;;;;;1.85;0.43;;;11.60;1.00;;;;;;5054108;28;20041;-71
2022/02/20 12:50:42;;;;;;;0.82;0.60;;;11.60;1.00;;;;;;5037532;28;20038;-70
2022/02/20 12:53:09;;;;;;;4.35;2.28;;;11.50;1.00;;;;;;5037519;28;20503;-70
2022/02/20 12:55:37;;;;;;;4.75;2.13;;;11.50;1.00;;;;;;5036941;28;20044;-70
2022/02/20 12:58:05;;;;;;;1.33;1.00;;;11.70;1.00;;;;;;5036373;28;20068;-69
2022/02/20 13:00:34;;;;;;;1.90;0.82;;;11.70;1.00;;;;;;5050488;28;20041;-69
2022/02/20 13:03:00;;;;;;;1.70;0.93;;;11.80;1.00;;;;;;5068726;28;20048;-70
2022/02/20 13:05:32;;;;;;;1.83;0.60;;;11.90;1.00;;;;;;5076606;28;20048;-70
2022/02/20 13:08:08;;;;;;;0.50;0.43;;;11.80;1.00;;;;;;5076347;28;20044;-70
2022/02/20 13:10:39;;;;;;;2.95;1.35;;;11.80;1.00;;;;;;5052384;28;20360;-70